Terminal Aerodrome Forecast
Issued by NWS

Home | Current Version | Previous Version | Text Only | Print | Product List | Glossary On
Versions: 1 2 3 4 5 6 7 8 9 10 11 12 13 14 15 16 17 18 19 20 21 22 23 24 25 26
000
FTUS45 KPSR 230500
TAFPHX
TAF
KPHX 230520Z 2306/2406 VRB04KT P6SM SKC
     FM231100 12006KT P6SM SKC
     FM232000 29006KT P6SM SKC
     FM240400 VRB04KT P6SM SKC=

USA.gov is the U.S. government's official web portal to all federal, state and local government web resources and services.